sensor_id;sensor_type;location;lat;lon;timestamp;temperature;humidity
2625;DHT22;1322;53.256;10.386;2023-07-31T00:00:44;17.20;99.90
2625;DHT22;1322;53.256;10.386;2023-07-31T00:03:11;17.30;99.90
2625;DHT22;1322;53.256;10.386;2023-07-31T00:05:37;17.20;99.90
2625;DHT22;1322;53.256;10.386;2023-07-31T00:08:03;17.20;99.90
2625;DHT22;1322;53.256;10.386;2023-07-31T00:10:28;17.20;99.90
2625;DHT22;1322;53.256;10.386;2023-07-31T00:12:54;17.30;99.90
2625;DHT22;1322;53.256;10.386;2023-07-31T00:15:19;17.30;99.90
2625;DHT22;1322;53.256;10.386;2023-07-31T00:17:45;17.30;99.90
2625;DHT22;1322;53.256;10.386;2023-07-31T00:20:11;17.30;99.90
2625;DHT22;1322;53.256;10.386;2023-07-31T00:22:36;17.30;99.90
2625;DHT22;1322;53.256;10.386;2023-07-31T00:25:02;17.30;99.90
2625;DHT22;1322;53.256;10.386;2023-07-31T00:27:28;17.30;99.90
2625;DHT22;1322;53.256;10.386;2023-07-31T00:29:53;17.30;99.90
2625;DHT22;1322;53.256;10.386;2023-07-31T00:32:19;17.30;99.90
2625;DHT22;1322;53.256;10.386;2023-07-31T00:34:44;17.30;99.90
2625;DHT22;1322;53.256;10.386;2023-07-31T00:37:10;17.40;99.90
2625;DHT22;1322;53.256;10.386;2023-07-31T00:39:36;17.40;99.90
2625;DHT22;1322;53.256;10.386;2023-07-31T00:42:02;17.40;99.90
2625;DHT22;1322;53.256;10.386;2023-07-31T00:44:27;17.40;99.90
2625;DHT22;1322;53.256;10.386;2023-07-31T00:46:54;17.40;99.90
2625;DHT22;1322;53.256;10.386;2023-07-31T00:49:21;17.50;99.90
2625;DHT22;1322;53.256;10.386;2023-07-31T00:51:46;17.50;99.90
2625;DHT22;1322;53.256;10.386;2023-07-31T00:54:12;17.50;99.90
2625;DHT22;1322;53.256;10.386;2023-07-31T00:56:38;17.50;99.90
2625;DHT22;1322;53.256;10.386;2023-07-31T00:59:05;17.50;99.90
2625;DHT22;1322;53.256;10.386;2023-07-31T01:01:30;17.50;99.90
2625;DHT22;1322;53.256;10.386;2023-07-31T01:03:56;17.50;99.90
2625;DHT22;1322;53.256;10.386;2023-07-31T01:06:40;17.50;99.90
2625;DHT22;1322;53.256;10.386;2023-07-31T01:09:47;17.50;99.90
2625;DHT22;1322;53.256;10.386;2023-07-31T01:12:15;17.50;99.90
2625;DHT22;1322;53.256;10.386;2023-07-31T01:15:07;17.40;99.90
2625;DHT22;1322;53.256;10.386;2023-07-31T01:17:36;17.50;99.90
2625;DHT22;1322;53.256;10.386;2023-07-31T01:20:05;17.50;99.90
2625;DHT22;1322;53.256;10.386;2023-07-31T01:23:08;17.50;99.90
2625;DHT22;1322;53.256;10.386;2023-07-31T01:28:20;17.50;99.90
2625;DHT22;1322;53.256;10.386;2023-07-31T01:30:48;17.50;99.90
2625;DHT22;1322;53.256;10.386;2023-07-31T01:33:15;17.50;99.90
2625;DHT22;1322;53.256;10.386;2023-07-31T01:35:45;17.50;99.90
2625;DHT22;1322;53.256;10.386;2023-07-31T01:38:12;17.50;99.90
2625;DHT22;1322;53.256;10.386;2023-07-31T01:40:41;17.50;99.90
2625;DHT22;1322;53.256;10.386;2023-07-31T01:43:07;17.50;99.90
2625;DHT22;1322;53.256;10.386;2023-07-31T01:45:32;17.50;99.90
2625;DHT22;1322;53.256;10.386;2023-07-31T01:47:58;17.50;99.90
2625;DHT22;1322;53.256;10.386;2023-07-31T01:50:23;17.40;99.90
2625;DHT22;1322;53.256;10.386;2023-07-31T01:52:49;17.50;99.90
2625;DHT22;1322;53.256;10.386;2023-07-31T01:55:15;17.50;99.90
2625;DHT22;1322;53.256;10.386;2023-07-31T01:57:40;17.50;99.90
2625;DHT22;1322;53.256;10.386;2023-07-31T02:00:06;17.50;99.90
2625;DHT22;1322;53.256;10.386;2023-07-31T02:02:33;17.50;99.90
2625;DHT22;1322;53.256;10.386;2023-07-31T02:04:58;17.40;99.90
2625;DHT22;1322;53.256;10.386;2023-07-31T02:07:24;17.40;99.90
2625;DHT22;1322;53.256;10.386;2023-07-31T02:09:49;17.40;99.90
2625;DHT22;1322;53.256;10.386;2023-07-31T02:12:15;17.30;99.90
2625;DHT22;1322;53.256;10.386;2023-07-31T02:14:41;17.30;99.90
2625;DHT22;1322;53.256;10.386;2023-07-31T02:17:06;17.30;99.90
2625;DHT22;1322;53.256;10.386;2023-07-31T02:19:32;17.30;99.90
2625;DHT22;1322;53.256;10.386;2023-07-31T02:21:58;17.30;99.90
2625;DHT22;1322;53.256;10.386;2023-07-31T02:24:25;17.30;99.90
2625;DHT22;1322;53.256;10.386;2023-07-31T02:26:50;17.30;99.90
2625;DHT22;1322;53.256;10.386;2023-07-31T02:29:16;17.30;99.90
2625;DHT22;1322;53.256;10.386;2023-07-31T02:31:42;17.30;99.90
2625;DHT22;1322;53.256;10.386;2023-07-31T02:34:07;17.30;99.90
2625;DHT22;1322;53.256;10.386;2023-07-31T02:36:33;17.30;99.90
2625;DHT22;1322;53.256;10.386;2023-07-31T02:38:58;17.30;99.90
2625;DHT22;1322;53.256;10.386;2023-07-31T02:41:24;17.20;99.90
2625;DHT22;1322;53.256;10.386;2023-07-31T02:43:50;17.20;99.90
2625;DHT22;1322;53.256;10.386;2023-07-31T02:46:15;17.20;99.90
2625;DHT22;1322;53.256;10.386;2023-07-31T02:48:41;17.20;99.90
2625;DHT22;1322;53.256;10.386;2023-07-31T02:51:06;17.20;99.90
2625;DHT22;1322;53.256;10.386;2023-07-31T02:53:32;17.20;99.90
2625;DHT22;1322;53.256;10.386;2023-07-31T02:55:58;17.30;99.90
2625;DHT22;1322;53.256;10.386;2023-07-31T02:58:23;17.30;99.90
2625;DHT22;1322;53.256;10.386;2023-07-31T03:00:49;17.30;99.90
2625;DHT22;1322;53.256;10.386;2023-07-31T03:03:14;17.30;99.90
2625;DHT22;1322;53.256;10.386;2023-07-31T03:05:40;17.30;99.90
2625;DHT22;1322;53.256;10.386;2023-07-31T03:08:06;17.40;99.90
2625;DHT22;1322;53.256;10.386;2023-07-31T03:10:31;17.40;99.90
2625;DHT22;1322;53.256;10.386;2023-07-31T03:12:57;17.40;99.90
2625;DHT22;1322;53.256;10.386;2023-07-31T03:15:22;17.40;99.90
2625;DHT22;1322;53.256;10.386;2023-07-31T03:17:48;17.50;99.90
2625;DHT22;1322;53.256;10.386;2023-07-31T03:20:14;17.50;99.90
2625;DHT22;1322;53.256;10.386;2023-07-31T03:22:39;17.50;99.90
2625;DHT22;1322;53.256;10.386;2023-07-31T03:25:05;17.50;99.90
2625;DHT22;1322;53.256;10.386;2023-07-31T03:27:31;17.50;99.90
2625;DHT22;1322;53.256;10.386;2023-07-31T03:29:57;17.50;99.90
2625;DHT22;1322;53.256;10.386;2023-07-31T03:32:22;17.50;99.90
2625;DHT22;1322;53.256;10.386;2023-07-31T03:34:49;17.50;99.90
2625;DHT22;1322;53.256;10.386;2023-07-31T03:37:15;17.50;99.90
2625;DHT22;1322;53.256;10.386;2023-07-31T03:39:40;17.50;99.90
2625;DHT22;1322;53.256;10.386;2023-07-31T03:42:06;17.50;99.90
2625;DHT22;1322;53.256;10.386;2023-07-31T03:44:32;17.40;99.90
2625;DHT22;1322;53.256;10.386;2023-07-31T03:46:57;17.40;99.90
2625;DHT22;1322;53.256;10.386;2023-07-31T03:49:23;17.40;99.90
2625;DHT22;1322;53.256;10.386;2023-07-31T03:51:49;17.40;99.90
2625;DHT22;1322;53.256;10.386;2023-07-31T03:54:15;17.50;99.90
2625;DHT22;1322;53.256;10.386;2023-07-31T03:56:41;17.40;99.90
2625;DHT22;1322;53.256;10.386;2023-07-31T03:59:06;17.50;99.90
2625;DHT22;1322;53.256;10.386;2023-07-31T04:01:32;17.50;99.90
2625;DHT22;1322;53.256;10.386;2023-07-31T04:03:57;17.40;99.90
2625;DHT22;1322;53.256;10.386;2023-07-31T04:06:23;17.40;99.90
2625;DHT22;1322;53.256;10.386;2023-07-31T04:08:49;17.30;99.90
2625;DHT22;1322;53.256;10.386;2023-07-31T04:11:14;17.40;99.90
2625;DHT22;1322;53.256;10.386;2023-07-31T04:13:40;17.30;99.90
2625;DHT22;1322;53.256;10.386;2023-07-31T04:16:06;17.30;99.90
2625;DHT22;1322;53.256;10.386;2023-07-31T04:18:31;17.30;99.90
2625;DHT22;1322;53.256;10.386;2023-07-31T04:20:58;17.30;99.90
2625;DHT22;1322;53.256;10.386;2023-07-31T04:23:24;17.30;99.90
2625;DHT22;1322;53.256;10.386;2023-07-31T04:25:50;17.30;99.90
2625;DHT22;1322;53.256;10.386;2023-07-31T04:28:16;17.30;99.90
2625;DHT22;1322;53.256;10.386;2023-07-31T04:30:41;17.30;99.90
2625;DHT22;1322;53.256;10.386;2023-07-31T04:33:07;17.40;99.90
2625;DHT22;1322;53.256;10.386;2023-07-31T04:35:32;17.40;99.90
2625;DHT22;1322;53.256;10.386;2023-07-31T04:37:58;17.50;99.90
2625;DHT22;1322;53.256;10.386;2023-07-31T04:40:24;17.50;99.90
2625;DHT22;1322;53.256;10.386;2023-07-31T04:42:49;17.50;99.90
2625;DHT22;1322;53.256;10.386;2023-07-31T04:45:15;17.50;99.90
2625;DHT22;1322;53.256;10.386;2023-07-31T04:47:41;17.50;99.90
2625;DHT22;1322;53.256;10.386;2023-07-31T04:50:07;17.60;99.90
2625;DHT22;1322;53.256;10.386;2023-07-31T04:52:32;17.60;99.90
2625;DHT22;1322;53.256;10.386;2023-07-31T04:54:58;17.50;99.90
2625;DHT22;1322;53.256;10.386;2023-07-31T04:57:23;17.50;99.90
2625;DHT22;1322;53.256;10.386;2023-07-31T04:59:49;17.50;99.90
2625;DHT22;1322;53.256;10.386;2023-07-31T05:02:15;17.40;99.90
2625;DHT22;1322;53.256;10.386;2023-07-31T05:04:40;17.40;99.90
2625;DHT22;1322;53.256;10.386;2023-07-31T05:07:06;17.40;99.90
2625;DHT22;1322;53.256;10.386;2023-07-31T05:09:31;17.40;99.90
2625;DHT22;1322;53.256;10.386;2023-07-31T05:11:57;17.40;99.90
2625;DHT22;1322;53.256;10.386;2023-07-31T05:14:23;17.40;99.90
2625;DHT22;1322;53.256;10.386;2023-07-31T05:16:48;17.50;99.90
2625;DHT22;1322;53.256;10.386;2023-07-31T05:19:14;17.60;99.90
2625;DHT22;1322;53.256;10.386;2023-07-31T05:21:40;17.70;99.90
2625;DHT22;1322;53.256;10.386;2023-07-31T05:24:05;17.60;99.90
2625;DHT22;1322;53.256;10.386;2023-07-31T05:26:31;17.70;99.90
2625;DHT22;1322;53.256;10.386;2023-07-31T05:28:57;17.60;99.90
2625;DHT22;1322;53.256;10.386;2023-07-31T05:31:23;17.70;99.90
2625;DHT22;1322;53.256;10.386;2023-07-31T05:33:50;17.70;99.90
2625;DHT22;1322;53.256;10.386;2023-07-31T05:36:16;17.70;99.90
2625;DHT22;1322;53.256;10.386;2023-07-31T05:38:42;17.80;99.90
2625;DHT22;1322;53.256;10.386;2023-07-31T05:41:10;17.90;99.90
2625;DHT22;1322;53.256;10.386;2023-07-31T05:43:36;18.00;99.90
2625;DHT22;1322;53.256;10.386;2023-07-31T05:46:02;18.10;99.90
2625;DHT22;1322;53.256;10.386;2023-07-31T05:48:27;18.10;99.90
2625;DHT22;1322;53.256;10.386;2023-07-31T05:50:53;18.20;99.90
2625;DHT22;1322;53.256;10.386;2023-07-31T05:53:18;18.20;99.90
2625;DHT22;1322;53.256;10.386;2023-07-31T05:55:44;18.20;99.90
2625;DHT22;1322;53.256;10.386;2023-07-31T05:58:10;18.20;99.90
2625;DHT22;1322;53.256;10.386;2023-07-31T06:00:35;18.40;99.90
2625;DHT22;1322;53.256;10.386;2023-07-31T06:03:01;18.50;99.90
2625;DHT22;1322;53.256;10.386;2023-07-31T06:05:27;18.60;99.90
2625;DHT22;1322;53.256;10.386;2023-07-31T06:07:55;18.60;99.90
2625;DHT22;1322;53.256;10.386;2023-07-31T06:10:21;18.70;99.90
2625;DHT22;1322;53.256;10.386;2023-07-31T06:12:46;18.80;99.90
2625;DHT22;1322;53.256;10.386;2023-07-31T06:15:12;18.90;99.90
2625;DHT22;1322;53.256;10.386;2023-07-31T06:17:38;18.90;99.90
2625;DHT22;1322;53.256;10.386;2023-07-31T06:20:06;18.90;99.90
2625;DHT22;1322;53.256;10.386;2023-07-31T06:22:32;19.00;99.90
2625;DHT22;1322;53.256;10.386;2023-07-31T06:24:57;19.00;99.90
2625;DHT22;1322;53.256;10.386;2023-07-31T06:27:23;19.10;99.90
2625;DHT22;1322;53.256;10.386;2023-07-31T06:29:49;19.10;99.90
2625;DHT22;1322;53.256;10.386;2023-07-31T06:32:14;19.10;99.90
2625;DHT22;1322;53.256;10.386;2023-07-31T06:34:40;19.20;99.90
2625;DHT22;1322;53.256;10.386;2023-07-31T06:37:06;19.10;99.90
2625;DHT22;1322;53.256;10.386;2023-07-31T06:39:31;19.10;99.90
2625;DHT22;1322;53.256;10.386;2023-07-31T06:41:57;19.00;99.90
2625;DHT22;1322;53.256;10.386;2023-07-31T06:44:22;19.00;99.90
2625;DHT22;1322;53.256;10.386;2023-07-31T06:46:48;19.10;99.90
2625;DHT22;1322;53.256;10.386;2023-07-31T06:49:13;19.20;99.90
2625;DHT22;1322;53.256;10.386;2023-07-31T06:51:41;19.40;99.90
2625;DHT22;1322;53.256;10.386;2023-07-31T06:54:07;19.50;99.90
2625;DHT22;1322;53.256;10.386;2023-07-31T06:56:33;19.70;99.90
2625;DHT22;1322;53.256;10.386;2023-07-31T06:58:59;19.80;99.90
2625;DHT22;1322;53.256;10.386;2023-07-31T07:01:24;19.90;99.90
2625;DHT22;1322;53.256;10.386;2023-07-31T07:03:50;20.00;99.90
2625;DHT22;1322;53.256;10.386;2023-07-31T07:06:19;19.90;99.90
2625;DHT22;1322;53.256;10.386;2023-07-31T07:08:45;20.00;99.90
2625;DHT22;1322;53.256;10.386;2023-07-31T07:11:10;20.10;99.90
2625;DHT22;1322;53.256;10.386;2023-07-31T07:13:36;20.20;99.90
2625;DHT22;1322;53.256;10.386;2023-07-31T07:16:02;20.20;99.90
2625;DHT22;1322;53.256;10.386;2023-07-31T07:18:28;20.30;99.90
2625;DHT22;1322;53.256;10.386;2023-07-31T07:20:54;20.40;99.90
2625;DHT22;1322;53.256;10.386;2023-07-31T07:23:20;20.60;99.90
2625;DHT22;1322;53.256;10.386;2023-07-31T07:25:46;20.70;99.90
2625;DHT22;1322;53.256;10.386;2023-07-31T07:28:12;20.60;99.90
2625;DHT22;1322;53.256;10.386;2023-07-31T07:30:38;20.60;99.90
2625;DHT22;1322;53.256;10.386;2023-07-31T07:33:04;20.50;99.90
2625;DHT22;1322;53.256;10.386;2023-07-31T07:35:30;20.30;99.90
2625;DHT22;1322;53.256;10.386;2023-07-31T07:37:55;20.20;99.90
2625;DHT22;1322;53.256;10.386;2023-07-31T07:40:22;20.10;99.90
2625;DHT22;1322;53.256;10.386;2023-07-31T07:42:48;20.10;99.90
2625;DHT22;1322;53.256;10.386;2023-07-31T07:45:13;20.00;99.90
2625;DHT22;1322;53.256;10.386;2023-07-31T07:47:42;19.90;99.90
2625;DHT22;1322;53.256;10.386;2023-07-31T07:50:08;19.90;99.90
2625;DHT22;1322;53.256;10.386;2023-07-31T07:52:34;20.00;99.90
2625;DHT22;1322;53.256;10.386;2023-07-31T07:54:59;20.00;99.90
2625;DHT22;1322;53.256;10.386;2023-07-31T07:57:26;20.00;99.90
2625;DHT22;1322;53.256;10.386;2023-07-31T07:59:51;20.10;99.90
2625;DHT22;1322;53.256;10.386;2023-07-31T08:02:17;20.10;99.90
2625;DHT22;1322;53.256;10.386;2023-07-31T08:04:42;20.10;99.90
2625;DHT22;1322;53.256;10.386;2023-07-31T08:07:11;20.10;99.90
2625;DHT22;1322;53.256;10.386;2023-07-31T08:09:37;20.10;99.90
2625;DHT22;1322;53.256;10.386;2023-07-31T08:12:03;20.10;99.90
2625;DHT22;1322;53.256;10.386;2023-07-31T08:14:29;20.20;99.90
2625;DHT22;1322;53.256;10.386;2023-07-31T08:16:55;20.20;99.90
2625;DHT22;1322;53.256;10.386;2023-07-31T08:19:21;20.20;99.90
2625;DHT22;1322;53.256;10.386;2023-07-31T08:21:46;20.30;99.90
2625;DHT22;1322;53.256;10.386;2023-07-31T08:24:12;20.30;99.90
2625;DHT22;1322;53.256;10.386;2023-07-31T08:26:38;20.40;99.90
2625;DHT22;1322;53.256;10.386;2023-07-31T08:29:04;20.30;99.90
2625;DHT22;1322;53.256;10.386;2023-07-31T08:31:29;20.30;99.90
2625;DHT22;1322;53.256;10.386;2023-07-31T08:33:55;20.40;99.90
2625;DHT22;1322;53.256;10.386;2023-07-31T08:36:21;20.50;99.90
2625;DHT22;1322;53.256;10.386;2023-07-31T08:38:47;20.50;99.90
2625;DHT22;1322;53.256;10.386;2023-07-31T08:41:12;20.50;99.90
2625;DHT22;1322;53.256;10.386;2023-07-31T08:43:44;20.50;99.90
2625;DHT22;1322;53.256;10.386;2023-07-31T08:46:10;20.30;99.90
2625;DHT22;1322;53.256;10.386;2023-07-31T08:48:37;20.20;99.90
2625;DHT22;1322;53.256;10.386;2023-07-31T08:51:06;20.20;99.90
2625;DHT22;1322;53.256;10.386;2023-07-31T08:53:32;20.10;99.90
2625;DHT22;1322;53.256;10.386;2023-07-31T08:55:59;20.10;99.90
2625;DHT22;1322;53.256;10.386;2023-07-31T08:58:25;19.90;99.90
2625;DHT22;1322;53.256;10.386;2023-07-31T09:00:53;19.80;99.90
2625;DHT22;1322;53.256;10.386;2023-07-31T09:03:23;19.80;99.90
2625;DHT22;1322;53.256;10.386;2023-07-31T09:05:50;19.70;99.90
2625;DHT22;1322;53.256;10.386;2023-07-31T09:08:19;19.70;99.90
2625;DHT22;1322;53.256;10.386;2023-07-31T09:10:45;19.70;99.90
2625;DHT22;1322;53.256;10.386;2023-07-31T09:13:12;19.80;99.90
2625;DHT22;1322;53.256;10.386;2023-07-31T09:15:39;19.80;99.90
2625;DHT22;1322;53.256;10.386;2023-07-31T09:18:06;19.90;99.90
2625;DHT22;1322;53.256;10.386;2023-07-31T09:20:33;19.90;99.90
2625;DHT22;1322;53.256;10.386;2023-07-31T09:23:10;19.90;99.90
2625;DHT22;1322;53.256;10.386;2023-07-31T09:25:37;19.90;99.90
2625;DHT22;1322;53.256;10.386;2023-07-31T09:28:06;19.90;99.90
2625;DHT22;1322;53.256;10.386;2023-07-31T09:30:50;19.90;99.90
2625;DHT22;1322;53.256;10.386;2023-07-31T09:33:17;19.90;99.90
2625;DHT22;1322;53.256;10.386;2023-07-31T09:35:43;19.80;99.90
2625;DHT22;1322;53.256;10.386;2023-07-31T09:38:13;19.70;99.90
2625;DHT22;1322;53.256;10.386;2023-07-31T09:40:46;19.80;99.90
2625;DHT22;1322;53.256;10.386;2023-07-31T09:43:20;19.90;99.90
2625;DHT22;1322;53.256;10.386;2023-07-31T09:45:46;20.10;99.90
2625;DHT22;1322;53.256;10.386;2023-07-31T09:48:14;20.10;99.90
2625;DHT22;1322;53.256;10.386;2023-07-31T09:50:47;20.20;99.90
2625;DHT22;1322;53.256;10.386;2023-07-31T09:53:13;20.10;99.90
2625;DHT22;1322;53.256;10.386;2023-07-31T09:55:40;20.10;99.90
2625;DHT22;1322;53.256;10.386;2023-07-31T09:58:08;20.20;99.90
2625;DHT22;1322;53.256;10.386;2023-07-31T10:00:35;20.40;99.90
2625;DHT22;1322;53.256;10.386;2023-07-31T10:03:10;20.50;99.90
2625;DHT22;1322;53.256;10.386;2023-07-31T10:05:50;20.50;99.90
2625;DHT22;1322;53.256;10.386;2023-07-31T10:08:18;20.70;99.90
2625;DHT22;1322;53.256;10.386;2023-07-31T10:10:45;20.90;99.90
2625;DHT22;1322;53.256;10.386;2023-07-31T10:13:12;21.00;99.90
2625;DHT22;1322;53.256;10.386;2023-07-31T10:15:39;21.00;99.90
2625;DHT22;1322;53.256;10.386;2023-07-31T10:18:07;20.90;99.90
2625;DHT22;1322;53.256;10.386;2023-07-31T10:20:33;20.90;99.90
2625;DHT22;1322;53.256;10.386;2023-07-31T10:22:59;20.90;99.90
2625;DHT22;1322;53.256;10.386;2023-07-31T10:25:26;21.00;99.90
2625;DHT22;1322;53.256;10.386;2023-07-31T10:27:53;21.10;99.90
2625;DHT22;1322;53.256;10.386;2023-07-31T10:30:22;21.10;99.90
2625;DHT22;1322;53.256;10.386;2023-07-31T10:32:51;21.10;99.90
2625;DHT22;1322;53.256;10.386;2023-07-31T10:35:18;21.30;99.90
2625;DHT22;1322;53.256;10.386;2023-07-31T10:37:44;21.60;99.90
2625;DHT22;1322;53.256;10.386;2023-07-31T10:40:18;21.90;99.90
2625;DHT22;1322;53.256;10.386;2023-07-31T10:42:50;22.10;99.90
2625;DHT22;1322;53.256;10.386;2023-07-31T10:45:38;21.90;99.90
2625;DHT22;1322;53.256;10.386;2023-07-31T10:48:14;21.60;99.90
2625;DHT22;1322;53.256;10.386;2023-07-31T10:50:51;21.70;99.90
2625;DHT22;1322;53.256;10.386;2023-07-31T10:53:30;21.60;99.90
2625;DHT22;1322;53.256;10.386;2023-07-31T10:56:01;21.70;99.90
2625;DHT22;1322;53.256;10.386;2023-07-31T10:58:26;21.40;99.90
2625;DHT22;1322;53.256;10.386;2023-07-31T11:00:57;21.30;99.90
2625;DHT22;1322;53.256;10.386;2023-07-31T11:06:07;21.30;99.90
2625;DHT22;1322;53.256;10.386;2023-07-31T11:08:33;21.20;99.90
2625;DHT22;1322;53.256;10.386;2023-07-31T11:13:41;21.60;99.90
2625;DHT22;1322;53.256;10.386;2023-07-31T11:16:08;21.60;99.90
2625;DHT22;1322;53.256;10.386;2023-07-31T11:18:34;21.60;99.90
2625;DHT22;1322;53.256;10.386;2023-07-31T11:21:00;21.50;99.90
2625;DHT22;1322;53.256;10.386;2023-07-31T11:23:25;21.60;99.90
2625;DHT22;1322;53.256;10.386;2023-07-31T11:25:51;21.60;99.90
2625;DHT22;1322;53.256;10.386;2023-07-31T11:28:19;21.60;99.90
2625;DHT22;1322;53.256;10.386;2023-07-31T11:30:45;21.50;99.90
2625;DHT22;1322;53.256;10.386;2023-07-31T11:33:13;21.70;99.90
2625;DHT22;1322;53.256;10.386;2023-07-31T11:35:44;21.70;99.90
2625;DHT22;1322;53.256;10.386;2023-07-31T11:38:12;21.60;99.90
2625;DHT22;1322;53.256;10.386;2023-07-31T11:40:46;21.80;99.90
2625;DHT22;1322;53.256;10.386;2023-07-31T11:43:11;21.80;99.90
2625;DHT22;1322;53.256;10.386;2023-07-31T11:45:41;21.90;99.90
2625;DHT22;1322;53.256;10.386;2023-07-31T11:48:10;22.00;99.90
2625;DHT22;1322;53.256;10.386;2023-07-31T11:50:35;22.00;99.90
2625;DHT22;1322;53.256;10.386;2023-07-31T11:53:04;22.00;99.90
2625;DHT22;1322;53.256;10.386;2023-07-31T11:55:33;21.80;99.90
2625;DHT22;1322;53.256;10.386;2023-07-31T11:57:59;21.80;99.90
2625;DHT22;1322;53.256;10.386;2023-07-31T12:00:26;21.80;99.90
2625;DHT22;1322;53.256;10.386;2023-07-31T12:02:52;21.70;99.90
2625;DHT22;1322;53.256;10.386;2023-07-31T12:05:18;21.50;99.90
2625;DHT22;1322;53.256;10.386;2023-07-31T12:07:55;21.50;99.90
2625;DHT22;1322;53.256;10.386;2023-07-31T12:10:24;21.40;99.90
2625;DHT22;1322;53.256;10.386;2023-07-31T12:13:01;21.40;99.90
2625;DHT22;1322;53.256;10.386;2023-07-31T12:15:42;21.40;99.90
2625;DHT22;1322;53.256;10.386;2023-07-31T12:18:10;21.50;99.90
2625;DHT22;1322;53.256;10.386;2023-07-31T12:20:41;21.50;99.90
2625;DHT22;1322;53.256;10.386;2023-07-31T12:23:18;21.40;99.90
2625;DHT22;1322;53.256;10.386;2023-07-31T12:25:45;21.30;99.90
2625;DHT22;1322;53.256;10.386;2023-07-31T12:28:10;21.40;99.90
2625;DHT22;1322;53.256;10.386;2023-07-31T12:30:40;21.40;99.90
2625;DHT22;1322;53.256;10.386;2023-07-31T12:33:15;21.50;99.90
2625;DHT22;1322;53.256;10.386;2023-07-31T12:35:43;21.60;99.90
2625;DHT22;1322;53.256;10.386;2023-07-31T12:38:09;21.60;99.90
2625;DHT22;1322;53.256;10.386;2023-07-31T12:40:37;21.60;99.90
2625;DHT22;1322;53.256;10.386;2023-07-31T12:43:04;21.60;99.90
2625;DHT22;1322;53.256;10.386;2023-07-31T12:45:30;21.70;99.90
2625;DHT22;1322;53.256;10.386;2023-07-31T12:47:57;21.70;99.90
2625;DHT22;1322;53.256;10.386;2023-07-31T12:50:23;21.70;99.90
2625;DHT22;1322;53.256;10.386;2023-07-31T12:52:49;21.60;99.90
2625;DHT22;1322;53.256;10.386;2023-07-31T12:55:15;21.60;99.90
2625;DHT22;1322;53.256;10.386;2023-07-31T12:57:40;21.60;99.90
2625;DHT22;1322;53.256;10.386;2023-07-31T13:00:07;21.60;99.90
2625;DHT22;1322;53.256;10.386;2023-07-31T13:02:33;21.50;99.90
2625;DHT22;1322;53.256;10.386;2023-07-31T13:04:59;21.40;99.90
2625;DHT22;1322;53.256;10.386;2023-07-31T13:07:25;21.30;99.90
2625;DHT22;1322;53.256;10.386;2023-07-31T13:09:51;21.30;99.90
2625;DHT22;1322;53.256;10.386;2023-07-31T13:12:16;21.30;99.90
2625;DHT22;1322;53.256;10.386;2023-07-31T13:14:42;21.20;99.90
2625;DHT22;1322;53.256;10.386;2023-07-31T13:17:08;21.10;99.90
2625;DHT22;1322;53.256;10.386;2023-07-31T13:19:33;20.90;99.90
2625;DHT22;1322;53.256;10.386;2023-07-31T13:21:59;20.70;99.90
2625;DHT22;1322;53.256;10.386;2023-07-31T13:24:24;20.60;99.90
2625;DHT22;1322;53.256;10.386;2023-07-31T13:26:50;20.60;99.90
2625;DHT22;1322;53.256;10.386;2023-07-31T13:29:16;20.50;99.90
2625;DHT22;1322;53.256;10.386;2023-07-31T13:31:41;20.60;99.90
2625;DHT22;1322;53.256;10.386;2023-07-31T13:34:07;20.60;99.90
2625;DHT22;1322;53.256;10.386;2023-07-31T13:36:32;20.60;99.90
2625;DHT22;1322;53.256;10.386;2023-07-31T13:38:59;20.60;99.90
2625;DHT22;1322;53.256;10.386;2023-07-31T13:41:26;20.50;99.90
2625;DHT22;1322;53.256;10.386;2023-07-31T13:43:51;20.50;99.90
2625;DHT22;1322;53.256;10.386;2023-07-31T13:46:17;20.40;99.90
2625;DHT22;1322;53.256;10.386;2023-07-31T13:48:42;20.30;99.90
2625;DHT22;1322;53.256;10.386;2023-07-31T13:51:08;20.20;99.90
2625;DHT22;1322;53.256;10.386;2023-07-31T13:53:33;20.20;99.90
2625;DHT22;1322;53.256;10.386;2023-07-31T13:55:59;20.20;99.90
2625;DHT22;1322;53.256;10.386;2023-07-31T13:58:25;20.20;99.90
2625;DHT22;1322;53.256;10.386;2023-07-31T14:00:50;20.20;99.90
2625;DHT22;1322;53.256;10.386;2023-07-31T14:03:16;20.30;99.90
2625;DHT22;1322;53.256;10.386;2023-07-31T14:05:42;20.30;99.90
2625;DHT22;1322;53.256;10.386;2023-07-31T14:08:07;20.40;99.90
2625;DHT22;1322;53.256;10.386;2023-07-31T14:10:33;20.50;99.90
2625;DHT22;1322;53.256;10.386;2023-07-31T14:12:58;20.50;99.90
2625;DHT22;1322;53.256;10.386;2023-07-31T14:15:24;20.50;99.90
2625;DHT22;1322;53.256;10.386;2023-07-31T14:17:50;20.50;99.90
2625;DHT22;1322;53.256;10.386;2023-07-31T14:20:15;20.30;99.90
2625;DHT22;1322;53.256;10.386;2023-07-31T14:22:41;20.30;99.90
2625;DHT22;1322;53.256;10.386;2023-07-31T14:25:07;20.30;99.90
2625;DHT22;1322;53.256;10.386;2023-07-31T14:27:35;20.30;99.90
2625;DHT22;1322;53.256;10.386;2023-07-31T14:30:01;20.30;99.90
2625;DHT22;1322;53.256;10.386;2023-07-31T14:32:27;20.40;99.90
2625;DHT22;1322;53.256;10.386;2023-07-31T14:34:53;20.40;99.90
2625;DHT22;1322;53.256;10.386;2023-07-31T14:37:19;20.30;99.90
2625;DHT22;1322;53.256;10.386;2023-07-31T14:39:45;20.30;99.90
2625;DHT22;1322;53.256;10.386;2023-07-31T14:42:11;20.30;99.90
2625;DHT22;1322;53.256;10.386;2023-07-31T14:44:37;20.30;99.90
2625;DHT22;1322;53.256;10.386;2023-07-31T14:47:02;20.40;99.90
2625;DHT22;1322;53.256;10.386;2023-07-31T14:49:28;20.40;99.90
2625;DHT22;1322;53.256;10.386;2023-07-31T14:51:54;20.40;99.90
2625;DHT22;1322;53.256;10.386;2023-07-31T14:54:20;20.50;99.90
2625;DHT22;1322;53.256;10.386;2023-07-31T14:56:46;20.50;99.90
2625;DHT22;1322;53.256;10.386;2023-07-31T14:59:11;20.70;99.90
2625;DHT22;1322;53.256;10.386;2023-07-31T15:01:37;20.70;99.90
2625;DHT22;1322;53.256;10.386;2023-07-31T15:04:03;20.60;99.90
2625;DHT22;1322;53.256;10.386;2023-07-31T15:06:29;20.60;99.90
2625;DHT22;1322;53.256;10.386;2023-07-31T15:08:55;20.60;99.90
2625;DHT22;1322;53.256;10.386;2023-07-31T15:11:20;20.60;99.90
2625;DHT22;1322;53.256;10.386;2023-07-31T15:13:46;20.50;99.90
2625;DHT22;1322;53.256;10.386;2023-07-31T15:16:12;20.40;99.90
2625;DHT22;1322;53.256;10.386;2023-07-31T15:18:38;20.50;99.90
2625;DHT22;1322;53.256;10.386;2023-07-31T15:21:04;20.50;99.90
2625;DHT22;1322;53.256;10.386;2023-07-31T15:23:31;20.50;99.90
2625;DHT22;1322;53.256;10.386;2023-07-31T15:25:56;20.50;99.90
2625;DHT22;1322;53.256;10.386;2023-07-31T15:28:22;20.50;99.90
2625;DHT22;1322;53.256;10.386;2023-07-31T15:30:48;20.40;99.90
2625;DHT22;1322;53.256;10.386;2023-07-31T15:33:14;20.40;99.90
2625;DHT22;1322;53.256;10.386;2023-07-31T15:35:40;20.50;99.90
2625;DHT22;1322;53.256;10.386;2023-07-31T15:38:06;20.50;99.90
2625;DHT22;1322;53.256;10.386;2023-07-31T15:40:32;20.40;99.90
2625;DHT22;1322;53.256;10.386;2023-07-31T15:42:57;20.30;99.90
2625;DHT22;1322;53.256;10.386;2023-07-31T15:45:25;20.20;99.90
2625;DHT22;1322;53.256;10.386;2023-07-31T15:47:51;20.20;99.90
2625;DHT22;1322;53.256;10.386;2023-07-31T15:50:17;20.20;99.90